sensor_id;sensor_type;location;lat;lon;timestamp;temperature;humidity
73955;DHT22;62306;52.516;13.290;2023-06-26T00:01:47;21.90;99.90
73955;DHT22;62306;52.516;13.290;2023-06-26T00:04:16;21.80;99.90
73955;DHT22;62306;52.516;13.290;2023-06-26T00:06:43;21.80;99.90
73955;DHT22;62306;52.516;13.290;2023-06-26T00:09:10;21.80;99.90
73955;DHT22;62306;52.516;13.290;2023-06-26T00:11:37;21.80;99.90
73955;DHT22;62306;52.516;13.290;2023-06-26T00:14:04;21.80;99.90
73955;DHT22;62306;52.516;13.290;2023-06-26T00:16:32;21.70;99.90
73955;DHT22;62306;52.516;13.290;2023-06-26T00:18:59;21.70;99.90
73955;DHT22;62306;52.516;13.290;2023-06-26T00:21:27;21.70;99.90
73955;DHT22;62306;52.516;13.290;2023-06-26T00:23:54;21.70;99.90
73955;DHT22;62306;52.516;13.290;2023-06-26T00:26:21;21.70;99.90
73955;DHT22;62306;52.516;13.290;2023-06-26T00:28:49;21.60;99.90
73955;DHT22;62306;52.516;13.290;2023-06-26T00:31:17;21.60;99.90
73955;DHT22;62306;52.516;13.290;2023-06-26T00:33:44;21.60;99.90
73955;DHT22;62306;52.516;13.290;2023-06-26T00:36:10;21.60;99.90
73955;DHT22;62306;52.516;13.290;2023-06-26T00:38:39;21.60;99.90
73955;DHT22;62306;52.516;13.290;2023-06-26T00:41:06;21.60;99.90
73955;DHT22;62306;52.516;13.290;2023-06-26T00:43:38;21.60;99.90
73955;DHT22;62306;52.516;13.290;2023-06-26T00:46:05;21.70;99.90
73955;DHT22;62306;52.516;13.290;2023-06-26T00:48:35;21.70;99.90
73955;DHT22;62306;52.516;13.290;2023-06-26T00:51:03;21.70;99.90
73955;DHT22;62306;52.516;13.290;2023-06-26T00:53:31;21.70;99.90
73955;DHT22;62306;52.516;13.290;2023-06-26T00:55:59;21.70;99.90
73955;DHT22;62306;52.516;13.290;2023-06-26T00:58:26;21.60;99.90
73955;DHT22;62306;52.516;13.290;2023-06-26T01:00:53;21.70;99.90
73955;DHT22;62306;52.516;13.290;2023-06-26T01:03:21;21.60;99.90
73955;DHT22;62306;52.516;13.290;2023-06-26T01:05:50;21.60;99.90
73955;DHT22;62306;52.516;13.290;2023-06-26T01:08:18;21.70;99.90
73955;DHT22;62306;52.516;13.290;2023-06-26T01:10:46;21.60;99.90
73955;DHT22;62306;52.516;13.290;2023-06-26T01:13:16;21.60;99.90
73955;DHT22;62306;52.516;13.290;2023-06-26T01:15:43;21.60;99.90
73955;DHT22;62306;52.516;13.290;2023-06-26T01:18:11;21.60;99.90
73955;DHT22;62306;52.516;13.290;2023-06-26T01:20:41;21.60;99.90
73955;DHT22;62306;52.516;13.290;2023-06-26T01:23:16;21.60;99.90
73955;DHT22;62306;52.516;13.290;2023-06-26T01:28:32;21.50;99.90
73955;DHT22;62306;52.516;13.290;2023-06-26T01:31:02;21.60;99.90
73955;DHT22;62306;52.516;13.290;2023-06-26T01:33:30;21.60;99.90
73955;DHT22;62306;52.516;13.290;2023-06-26T01:35:57;21.50;99.90
73955;DHT22;62306;52.516;13.290;2023-06-26T01:38:24;21.50;99.90
73955;DHT22;62306;52.516;13.290;2023-06-26T01:40:52;21.50;99.90
73955;DHT22;62306;52.516;13.290;2023-06-26T01:43:24;21.50;99.90
73955;DHT22;62306;52.516;13.290;2023-06-26T01:45:59;21.50;99.90
73955;DHT22;62306;52.516;13.290;2023-06-26T01:48:32;21.40;99.90
73955;DHT22;62306;52.516;13.290;2023-06-26T01:50:59;21.50;99.90
73955;DHT22;62306;52.516;13.290;2023-06-26T01:53:32;21.50;99.90
73955;DHT22;62306;52.516;13.290;2023-06-26T01:56:07;21.50;99.90
73955;DHT22;62306;52.516;13.290;2023-06-26T01:58:35;21.50;99.90
73955;DHT22;62306;52.516;13.290;2023-06-26T02:01:05;21.60;99.90
73955;DHT22;62306;52.516;13.290;2023-06-26T02:03:32;21.60;99.90
73955;DHT22;62306;52.516;13.290;2023-06-26T02:05:59;21.60;99.90
73955;DHT22;62306;52.516;13.290;2023-06-26T02:08:26;21.50;99.90
73955;DHT22;62306;52.516;13.290;2023-06-26T02:10:52;21.60;99.90
73955;DHT22;62306;52.516;13.290;2023-06-26T02:13:19;21.60;99.90
73955;DHT22;62306;52.516;13.290;2023-06-26T02:15:46;21.50;99.90
73955;DHT22;62306;52.516;13.290;2023-06-26T02:18:15;21.60;99.90
73955;DHT22;62306;52.516;13.290;2023-06-26T02:20:42;21.50;99.90
73955;DHT22;62306;52.516;13.290;2023-06-26T02:23:09;21.50;99.90
73955;DHT22;62306;52.516;13.290;2023-06-26T02:25:36;21.40;99.90
73955;DHT22;62306;52.516;13.290;2023-06-26T02:28:03;21.40;99.90
73955;DHT22;62306;52.516;13.290;2023-06-26T02:30:30;21.40;99.90
73955;DHT22;62306;52.516;13.290;2023-06-26T02:32:57;21.50;99.90
73955;DHT22;62306;52.516;13.290;2023-06-26T02:35:25;21.40;99.90
73955;DHT22;62306;52.516;13.290;2023-06-26T02:37:52;21.40;99.90
73955;DHT22;62306;52.516;13.290;2023-06-26T02:40:19;21.40;99.90
73955;DHT22;62306;52.516;13.290;2023-06-26T02:42:46;21.40;99.90
73955;DHT22;62306;52.516;13.290;2023-06-26T02:45:13;21.40;99.90
73955;DHT22;62306;52.516;13.290;2023-06-26T02:47:40;21.30;99.90
73955;DHT22;62306;52.516;13.290;2023-06-26T02:50:08;21.20;99.90
73955;DHT22;62306;52.516;13.290;2023-06-26T02:52:36;21.20;99.90
73955;DHT22;62306;52.516;13.290;2023-06-26T02:55:05;21.20;99.90
73955;DHT22;62306;52.516;13.290;2023-06-26T02:57:32;21.10;99.90
73955;DHT22;62306;52.516;13.290;2023-06-26T02:59:59;21.10;99.90
73955;DHT22;62306;52.516;13.290;2023-06-26T03:02:26;21.20;99.90
73955;DHT22;62306;52.516;13.290;2023-06-26T03:04:52;21.20;99.90
73955;DHT22;62306;52.516;13.290;2023-06-26T03:07:19;21.20;99.90
73955;DHT22;62306;52.516;13.290;2023-06-26T03:09:48;21.20;99.90
73955;DHT22;62306;52.516;13.290;2023-06-26T03:12:15;21.20;99.90
73955;DHT22;62306;52.516;13.290;2023-06-26T03:14:41;21.10;99.90
73955;DHT22;62306;52.516;13.290;2023-06-26T03:17:08;21.10;99.90
73955;DHT22;62306;52.516;13.290;2023-06-26T03:19:35;21.20;99.90
73955;DHT22;62306;52.516;13.290;2023-06-26T03:22:02;21.20;99.90
73955;DHT22;62306;52.516;13.290;2023-06-26T03:24:30;21.20;99.90
73955;DHT22;62306;52.516;13.290;2023-06-26T03:26:58;21.20;99.90
73955;DHT22;62306;52.516;13.290;2023-06-26T03:29:25;21.20;99.90
73955;DHT22;62306;52.516;13.290;2023-06-26T03:31:52;21.20;99.90
73955;DHT22;62306;52.516;13.290;2023-06-26T03:34:19;21.30;99.90
73955;DHT22;62306;52.516;13.290;2023-06-26T03:36:47;21.40;99.90
73955;DHT22;62306;52.516;13.290;2023-06-26T03:39:14;21.50;99.90
73955;DHT22;62306;52.516;13.290;2023-06-26T03:41:41;21.60;99.90
73955;DHT22;62306;52.516;13.290;2023-06-26T03:44:09;21.60;99.90
73955;DHT22;62306;52.516;13.290;2023-06-26T03:46:36;21.70;99.90
73955;DHT22;62306;52.516;13.290;2023-06-26T03:49:03;21.80;99.90
73955;DHT22;62306;52.516;13.290;2023-06-26T03:51:30;21.90;99.90
73955;DHT22;62306;52.516;13.290;2023-06-26T03:53:57;22.00;99.90
73955;DHT22;62306;52.516;13.290;2023-06-26T03:56:24;22.00;99.90
73955;DHT22;62306;52.516;13.290;2023-06-26T03:58:51;22.10;99.90
73955;DHT22;62306;52.516;13.290;2023-06-26T04:01:19;22.10;99.90
73955;DHT22;62306;52.516;13.290;2023-06-26T04:03:47;22.20;99.90
73955;DHT22;62306;52.516;13.290;2023-06-26T04:06:14;22.10;99.90
73955;DHT22;62306;52.516;13.290;2023-06-26T04:08:41;22.10;99.90
73955;DHT22;62306;52.516;13.290;2023-06-26T04:11:07;22.20;99.90
73955;DHT22;62306;52.516;13.290;2023-06-26T04:13:34;22.20;99.90
73955;DHT22;62306;52.516;13.290;2023-06-26T04:16:01;22.30;99.90
73955;DHT22;62306;52.516;13.290;2023-06-26T04:18:30;22.30;99.90
73955;DHT22;62306;52.516;13.290;2023-06-26T04:21:05;22.30;99.90
73955;DHT22;62306;52.516;13.290;2023-06-26T04:23:33;22.40;99.90
73955;DHT22;62306;52.516;13.290;2023-06-26T04:26:00;22.50;99.90
73955;DHT22;62306;52.516;13.290;2023-06-26T04:28:28;22.60;99.90
73955;DHT22;62306;52.516;13.290;2023-06-26T04:30:55;20.70;99.90
73955;DHT22;62306;52.516;13.290;2023-06-26T04:33:22;22.70;99.90
73955;DHT22;62306;52.516;13.290;2023-06-26T04:35:51;22.70;99.90
73955;DHT22;62306;52.516;13.290;2023-06-26T04:38:18;22.70;99.90
73955;DHT22;62306;52.516;13.290;2023-06-26T04:40:46;22.70;99.90
73955;DHT22;62306;52.516;13.290;2023-06-26T04:43:14;22.70;99.90
73955;DHT22;62306;52.516;13.290;2023-06-26T04:45:41;22.70;99.90
73955;DHT22;62306;52.516;13.290;2023-06-26T04:48:08;22.80;99.90
73955;DHT22;62306;52.516;13.290;2023-06-26T04:50:35;22.90;99.90
73955;DHT22;62306;52.516;13.290;2023-06-26T04:53:03;23.00;99.90
73955;DHT22;62306;52.516;13.290;2023-06-26T04:55:30;23.10;99.90
73955;DHT22;62306;52.516;13.290;2023-06-26T04:57:57;23.20;99.90
73955;DHT22;62306;52.516;13.290;2023-06-26T05:00:24;23.50;99.90
73955;DHT22;62306;52.516;13.290;2023-06-26T05:02:51;23.80;99.90
73955;DHT22;62306;52.516;13.290;2023-06-26T05:05:26;24.20;99.20
73955;DHT22;62306;52.516;13.290;2023-06-26T05:07:53;24.30;98.60
73955;DHT22;62306;52.516;13.290;2023-06-26T05:10:21;24.10;97.80
73955;DHT22;62306;52.516;13.290;2023-06-26T05:12:48;24.10;98.50
73955;DHT22;62306;52.516;13.290;2023-06-26T05:15:15;24.10;98.30
73955;DHT22;62306;52.516;13.290;2023-06-26T05:17:42;24.00;98.50
73955;DHT22;62306;52.516;13.290;2023-06-26T05:20:10;22.30;97.60
73955;DHT22;62306;52.516;13.290;2023-06-26T05:22:37;23.70;98.60
73955;DHT22;62306;52.516;13.290;2023-06-26T05:25:08;23.60;98.60
73955;DHT22;62306;52.516;13.290;2023-06-26T05:27:37;23.50;98.40
73955;DHT22;62306;52.516;13.290;2023-06-26T05:30:05;23.60;99.30
73955;DHT22;62306;52.516;13.290;2023-06-26T05:32:34;23.60;98.90
73955;DHT22;62306;52.516;13.290;2023-06-26T05:35:03;23.60;98.40
73955;DHT22;62306;52.516;13.290;2023-06-26T05:37:31;23.70;98.60
73955;DHT22;62306;52.516;13.290;2023-06-26T05:39:59;23.80;98.20
73955;DHT22;62306;52.516;13.290;2023-06-26T05:42:27;24.40;97.70
73955;DHT22;62306;52.516;13.290;2023-06-26T05:44:56;26.00;95.30
73955;DHT22;62306;52.516;13.290;2023-06-26T05:47:23;28.00;91.90
73955;DHT22;62306;52.516;13.290;2023-06-26T05:49:50;30.00;85.10
73955;DHT22;62306;52.516;13.290;2023-06-26T05:52:17;31.50;75.60
73955;DHT22;62306;52.516;13.290;2023-06-26T05:54:44;32.40;67.90
73955;DHT22;62306;52.516;13.290;2023-06-26T05:57:13;33.00;64.20
73955;DHT22;62306;52.516;13.290;2023-06-26T05:59:43;33.10;61.60
73955;DHT22;62306;52.516;13.290;2023-06-26T06:02:12;33.60;58.80
73955;DHT22;62306;52.516;13.290;2023-06-26T06:04:39;33.60;58.60
73955;DHT22;62306;52.516;13.290;2023-06-26T06:07:06;33.80;57.50
73955;DHT22;62306;52.516;13.290;2023-06-26T06:09:33;34.00;56.40
73955;DHT22;62306;52.516;13.290;2023-06-26T06:12:00;34.00;55.90
73955;DHT22;62306;52.516;13.290;2023-06-26T06:14:29;34.10;55.30
73955;DHT22;62306;52.516;13.290;2023-06-26T06:16:56;34.20;54.70
73955;DHT22;62306;52.516;13.290;2023-06-26T06:19:24;34.70;53.80
73955;DHT22;62306;52.516;13.290;2023-06-26T06:21:51;34.30;53.10
73955;DHT22;62306;52.516;13.290;2023-06-26T06:24:19;34.80;53.20
73955;DHT22;62306;52.516;13.290;2023-06-26T06:26:46;34.80;52.40
73955;DHT22;62306;52.516;13.290;2023-06-26T06:29:13;35.20;52.70
73955;DHT22;62306;52.516;13.290;2023-06-26T06:31:40;35.20;51.90
73955;DHT22;62306;52.516;13.290;2023-06-26T06:34:07;35.50;50.40
73955;DHT22;62306;52.516;13.290;2023-06-26T06:36:35;35.10;50.90
73955;DHT22;62306;52.516;13.290;2023-06-26T06:39:02;34.80;51.70
73955;DHT22;62306;52.516;13.290;2023-06-26T06:41:29;34.60;52.00
73955;DHT22;62306;52.516;13.290;2023-06-26T06:43:56;34.60;51.90
73955;DHT22;62306;52.516;13.290;2023-06-26T06:46:23;34.40;51.80
73955;DHT22;62306;52.516;13.290;2023-06-26T06:48:52;34.40;52.10
73955;DHT22;62306;52.516;13.290;2023-06-26T06:51:19;34.40;51.60
73955;DHT22;62306;52.516;13.290;2023-06-26T06:53:48;34.20;52.20
73955;DHT22;62306;52.516;13.290;2023-06-26T06:56:15;34.10;52.50
73955;DHT22;62306;52.516;13.290;2023-06-26T06:58:42;33.50;53.70
73955;DHT22;62306;52.516;13.290;2023-06-26T07:01:11;32.70;55.10
73955;DHT22;62306;52.516;13.290;2023-06-26T07:03:38;32.00;55.90
73955;DHT22;62306;52.516;13.290;2023-06-26T07:06:05;31.50;57.40
73955;DHT22;62306;52.516;13.290;2023-06-26T07:08:32;31.20;57.60
73955;DHT22;62306;52.516;13.290;2023-06-26T07:11:00;31.10;58.20
73955;DHT22;62306;52.516;13.290;2023-06-26T07:13:27;31.00;59.10
73955;DHT22;62306;52.516;13.290;2023-06-26T07:15:54;31.00;59.50
73955;DHT22;62306;52.516;13.290;2023-06-26T07:18:21;30.90;59.20
73955;DHT22;62306;52.516;13.290;2023-06-26T07:20:48;30.90;60.20
73955;DHT22;62306;52.516;13.290;2023-06-26T07:23:15;31.20;59.40
73955;DHT22;62306;52.516;13.290;2023-06-26T07:25:42;31.10;59.00
73955;DHT22;62306;52.516;13.290;2023-06-26T07:28:12;31.00;59.20
73955;DHT22;62306;52.516;13.290;2023-06-26T07:30:39;31.20;59.00
73955;DHT22;62306;52.516;13.290;2023-06-26T07:33:06;31.40;58.70
73955;DHT22;62306;52.516;13.290;2023-06-26T07:35:33;31.40;58.10
73955;DHT22;62306;52.516;13.290;2023-06-26T07:38:00;31.50;58.10
73955;DHT22;62306;52.516;13.290;2023-06-26T07:40:27;31.60;57.70
73955;DHT22;62306;52.516;13.290;2023-06-26T07:42:54;31.60;57.70
73955;DHT22;62306;52.516;13.290;2023-06-26T07:45:24;31.60;57.90
73955;DHT22;62306;52.516;13.290;2023-06-26T07:47:51;31.00;58.70
73955;DHT22;62306;52.516;13.290;2023-06-26T07:50:19;31.20;57.90
73955;DHT22;62306;52.516;13.290;2023-06-26T07:52:48;31.30;57.70
73955;DHT22;62306;52.516;13.290;2023-06-26T07:55:15;31.70;57.20
73955;DHT22;62306;52.516;13.290;2023-06-26T07:57:42;31.60;56.60
73955;DHT22;62306;52.516;13.290;2023-06-26T08:00:11;31.80;56.60
73955;DHT22;62306;52.516;13.290;2023-06-26T08:02:40;31.70;57.50
73955;DHT22;62306;52.516;13.290;2023-06-26T08:05:07;31.70;56.80
73955;DHT22;62306;52.516;13.290;2023-06-26T08:07:34;31.60;55.60
73955;DHT22;62306;52.516;13.290;2023-06-26T08:10:01;31.80;56.00
73955;DHT22;62306;52.516;13.290;2023-06-26T08:12:29;31.90;55.70
73955;DHT22;62306;52.516;13.290;2023-06-26T08:14:56;32.00;55.00
73955;DHT22;62306;52.516;13.290;2023-06-26T08:17:23;32.00;55.70
73955;DHT22;62306;52.516;13.290;2023-06-26T08:19:52;31.80;55.60
73955;DHT22;62306;52.516;13.290;2023-06-26T08:22:18;31.40;57.80
73955;DHT22;62306;52.516;13.290;2023-06-26T08:24:47;31.50;55.70
73955;DHT22;62306;52.516;13.290;2023-06-26T08:27:14;31.60;55.70
73955;DHT22;62306;52.516;13.290;2023-06-26T08:29:41;31.90;55.40
73955;DHT22;62306;52.516;13.290;2023-06-26T08:32:08;31.80;54.70
73955;DHT22;62306;52.516;13.290;2023-06-26T08:34:35;31.60;53.40
73955;DHT22;62306;52.516;13.290;2023-06-26T08:37:04;31.40;56.00
73955;DHT22;62306;52.516;13.290;2023-06-26T08:39:31;31.40;53.80
73955;DHT22;62306;52.516;13.290;2023-06-26T08:41:58;31.50;54.60
73955;DHT22;62306;52.516;13.290;2023-06-26T08:44:25;31.70;54.10
73955;DHT22;62306;52.516;13.290;2023-06-26T08:46:52;31.80;54.30
73955;DHT22;62306;52.516;13.290;2023-06-26T08:49:23;31.90;52.90
73955;DHT22;62306;52.516;13.290;2023-06-26T08:51:55;32.00;53.20
73955;DHT22;62306;52.516;13.290;2023-06-26T08:54:27;32.10;53.00
73955;DHT22;62306;52.516;13.290;2023-06-26T08:56:59;32.20;51.50
73955;DHT22;62306;52.516;13.290;2023-06-26T08:59:27;32.20;52.50
73955;DHT22;62306;52.516;13.290;2023-06-26T09:01:54;32.00;52.60
73955;DHT22;62306;52.516;13.290;2023-06-26T09:04:21;31.60;52.80
73955;DHT22;62306;52.516;13.290;2023-06-26T09:06:51;31.50;53.50
73955;DHT22;62306;52.516;13.290;2023-06-26T09:09:18;31.50;53.60
73955;DHT22;62306;52.516;13.290;2023-06-26T09:11:47;31.50;51.40
73955;DHT22;62306;52.516;13.290;2023-06-26T09:14:14;31.60;53.40
73955;DHT22;62306;52.516;13.290;2023-06-26T09:16:42;31.60;53.20
73955;DHT22;62306;52.516;13.290;2023-06-26T09:19:10;31.80;53.00
73955;DHT22;62306;52.516;13.290;2023-06-26T09:21:38;32.00;51.90
73955;DHT22;62306;52.516;13.290;2023-06-26T09:24:07;31.90;52.70
73955;DHT22;62306;52.516;13.290;2023-06-26T09:26:35;31.90;52.70
73955;DHT22;62306;52.516;13.290;2023-06-26T09:29:04;32.00;52.90
73955;DHT22;62306;52.516;13.290;2023-06-26T09:31:32;32.10;52.80
73955;DHT22;62306;52.516;13.290;2023-06-26T09:33:59;32.30;51.60
73955;DHT22;62306;52.516;13.290;2023-06-26T09:36:28;32.00;53.20
73955;DHT22;62306;52.516;13.290;2023-06-26T09:38:59;32.00;52.20
73955;DHT22;62306;52.516;13.290;2023-06-26T09:41:26;32.10;52.80
73955;DHT22;62306;52.516;13.290;2023-06-26T09:43:54;32.10;52.30
73955;DHT22;62306;52.516;13.290;2023-06-26T09:46:26;32.30;52.40
73955;DHT22;62306;52.516;13.290;2023-06-26T09:48:59;32.30;52.30
73955;DHT22;62306;52.516;13.290;2023-06-26T09:51:29;32.30;51.90
73955;DHT22;62306;52.516;13.290;2023-06-26T09:53:56;32.30;50.90
73955;DHT22;62306;52.516;13.290;2023-06-26T09:56:24;32.10;52.60
73955;DHT22;62306;52.516;13.290;2023-06-26T09:58:51;31.80;51.50
73955;DHT22;62306;52.516;13.290;2023-06-26T10:01:18;31.80;52.70
73955;DHT22;62306;52.516;13.290;2023-06-26T10:03:47;31.70;53.30
73955;DHT22;62306;52.516;13.290;2023-06-26T10:06:15;31.90;53.30
73955;DHT22;62306;52.516;13.290;2023-06-26T10:08:45;32.10;52.90
73955;DHT22;62306;52.516;13.290;2023-06-26T10:11:16;32.20;51.70
73955;DHT22;62306;52.516;13.290;2023-06-26T10:13:48;32.20;51.60
73955;DHT22;62306;52.516;13.290;2023-06-26T10:16:18;31.90;51.30
73955;DHT22;62306;52.516;13.290;2023-06-26T10:18:51;32.00;51.40
73955;DHT22;62306;52.516;13.290;2023-06-26T10:21:20;31.90;51.00
73955;DHT22;62306;52.516;13.290;2023-06-26T10:23:50;31.90;52.10
73955;DHT22;62306;52.516;13.290;2023-06-26T10:26:21;31.90;51.70
73955;DHT22;62306;52.516;13.290;2023-06-26T10:28:49;31.60;52.90
73955;DHT22;62306;52.516;13.290;2023-06-26T10:31:19;31.70;53.20
73955;DHT22;62306;52.516;13.290;2023-06-26T10:33:49;32.00;52.20
73955;DHT22;62306;52.516;13.290;2023-06-26T10:36:17;32.10;53.20
73955;DHT22;62306;52.516;13.290;2023-06-26T10:38:52;32.20;51.20
73955;DHT22;62306;52.516;13.290;2023-06-26T10:41:20;32.40;50.00
73955;DHT22;62306;52.516;13.290;2023-06-26T10:43:50;32.30;50.90
73955;DHT22;62306;52.516;13.290;2023-06-26T10:46:18;32.20;51.40
73955;DHT22;62306;52.516;13.290;2023-06-26T10:48:58;32.10;51.40
73955;DHT22;62306;52.516;13.290;2023-06-26T10:51:26;32.10;51.40
73955;DHT22;62306;52.516;13.290;2023-06-26T10:53:57;32.00;51.50
73955;DHT22;62306;52.516;13.290;2023-06-26T10:56:42;32.20;51.40
73955;DHT22;62306;52.516;13.290;2023-06-26T10:59:17;32.40;51.40
73955;DHT22;62306;52.516;13.290;2023-06-26T11:01:45;32.50;50.50
73955;DHT22;62306;52.516;13.290;2023-06-26T11:04:14;32.80;49.10
73955;DHT22;62306;52.516;13.290;2023-06-26T11:06:45;33.00;49.40
73955;DHT22;62306;52.516;13.290;2023-06-26T11:09:17;32.70;50.00
73955;DHT22;62306;52.516;13.290;2023-06-26T11:11:58;32.60;49.90
73955;DHT22;62306;52.516;13.290;2023-06-26T11:14:30;32.70;50.00
73955;DHT22;62306;52.516;13.290;2023-06-26T11:16:58;32.60;48.90
73955;DHT22;62306;52.516;13.290;2023-06-26T11:19:27;32.50;50.10
73955;DHT22;62306;52.516;13.290;2023-06-26T11:21:59;32.60;49.50
73955;DHT22;62306;52.516;13.290;2023-06-26T11:24:28;32.60;50.70
73955;DHT22;62306;52.516;13.290;2023-06-26T11:27:00;32.60;50.30
73955;DHT22;62306;52.516;13.290;2023-06-26T11:29:28;32.80;50.30
73955;DHT22;62306;52.516;13.290;2023-06-26T11:31:59;33.00;50.00
73955;DHT22;62306;52.516;13.290;2023-06-26T11:34:31;33.00;48.10
73955;DHT22;62306;52.516;13.290;2023-06-26T11:36:58;32.60;48.90
73955;DHT22;62306;52.516;13.290;2023-06-26T11:39:27;32.70;49.40
73955;DHT22;62306;52.516;13.290;2023-06-26T11:41:54;32.50;49.30
73955;DHT22;62306;52.516;13.290;2023-06-26T11:44:21;32.60;50.20
73955;DHT22;62306;52.516;13.290;2023-06-26T11:46:51;32.70;49.40
73955;DHT22;62306;52.516;13.290;2023-06-26T11:49:21;32.50;49.40
73955;DHT22;62306;52.516;13.290;2023-06-26T11:51:53;32.10;49.50
73955;DHT22;62306;52.516;13.290;2023-06-26T11:54:24;31.70;49.20
73955;DHT22;62306;52.516;13.290;2023-06-26T11:56:56;31.60;51.20
73955;DHT22;62306;52.516;13.290;2023-06-26T11:59:24;31.70;51.40
73955;DHT22;62306;52.516;13.290;2023-06-26T12:01:51;32.00;49.70
73955;DHT22;62306;52.516;13.290;2023-06-26T12:04:19;32.10;49.40
73955;DHT22;62306;52.516;13.290;2023-06-26T12:06:48;31.90;50.60
73955;DHT22;62306;52.516;13.290;2023-06-26T12:09:19;31.90;50.10
73955;DHT22;62306;52.516;13.290;2023-06-26T12:11:47;31.90;50.80
73955;DHT22;62306;52.516;13.290;2023-06-26T12:14:15;32.20;50.20
73955;DHT22;62306;52.516;13.290;2023-06-26T12:16:43;32.30;50.80
73955;DHT22;62306;52.516;13.290;2023-06-26T12:19:10;32.50;48.40
73955;DHT22;62306;52.516;13.290;2023-06-26T12:21:48;32.70;48.30
73955;DHT22;62306;52.516;13.290;2023-06-26T12:24:20;32.80;48.40
73955;DHT22;62306;52.516;13.290;2023-06-26T12:26:50;32.90;48.20
73955;DHT22;62306;52.516;13.290;2023-06-26T12:29:20;32.50;49.30
73955;DHT22;62306;52.516;13.290;2023-06-26T12:31:50;32.40;49.30
73955;DHT22;62306;52.516;13.290;2023-06-26T12:34:19;32.20;49.80
73955;DHT22;62306;52.516;13.290;2023-06-26T12:36:48;32.40;49.60
73955;DHT22;62306;52.516;13.290;2023-06-26T12:39:16;32.20;48.80
73955;DHT22;62306;52.516;13.290;2023-06-26T12:41:49;32.30;49.60
73955;DHT22;62306;52.516;13.290;2023-06-26T12:44:16;32.30;49.70
73955;DHT22;62306;52.516;13.290;2023-06-26T12:46:43;32.60;50.10
73955;DHT22;62306;52.516;13.290;2023-06-26T12:49:12;32.70;49.00
73955;DHT22;62306;52.516;13.290;2023-06-26T12:51:39;33.00;48.70
73955;DHT22;62306;52.516;13.290;2023-06-26T12:54:06;33.00;48.90
73955;DHT22;62306;52.516;13.290;2023-06-26T12:56:33;32.90;48.90
73955;DHT22;62306;52.516;13.290;2023-06-26T12:59:02;32.70;49.90
73955;DHT22;62306;52.516;13.290;2023-06-26T13:01:29;32.70;49.30
73955;DHT22;62306;52.516;13.290;2023-06-26T13:03:56;32.50;48.80
73955;DHT22;62306;52.516;13.290;2023-06-26T13:06:23;32.20;49.40
73955;DHT22;62306;52.516;13.290;2023-06-26T13:08:50;32.20;50.00
73955;DHT22;62306;52.516;13.290;2023-06-26T13:11:17;32.20;50.00
73955;DHT22;62306;52.516;13.290;2023-06-26T13:13:44;32.20;50.70
73955;DHT22;62306;52.516;13.290;2023-06-26T13:16:12;32.20;50.30
73955;DHT22;62306;52.516;13.290;2023-06-26T13:18:39;32.00;50.50
73955;DHT22;62306;52.516;13.290;2023-06-26T13:21:06;31.80;51.10
73955;DHT22;62306;52.516;13.290;2023-06-26T13:23:33;31.60;51.40
73955;DHT22;62306;52.516;13.290;2023-06-26T13:26:00;31.60;51.50
73955;DHT22;62306;52.516;13.290;2023-06-26T13:28:27;31.50;51.60
73955;DHT22;62306;52.516;13.290;2023-06-26T13:30:54;31.30;51.40
73955;DHT22;62306;52.516;13.290;2023-06-26T13:33:22;31.10;51.70
73955;DHT22;62306;52.516;13.290;2023-06-26T13:35:51;31.00;56.30
73955;DHT22;62306;52.516;13.290;2023-06-26T13:38:19;30.90;57.10
73955;DHT22;62306;52.516;13.290;2023-06-26T13:40:50;30.70;55.70
73955;DHT22;62306;52.516;13.290;2023-06-26T13:43:17;30.50;57.00
73955;DHT22;62306;52.516;13.290;2023-06-26T13:45:44;30.40;56.80
73955;DHT22;62306;52.516;13.290;2023-06-26T13:48:11;30.30;58.00
73955;DHT22;62306;52.516;13.290;2023-06-26T13:50:39;30.40;56.00
73955;DHT22;62306;52.516;13.290;2023-06-26T13:53:06;30.40;56.80
73955;DHT22;62306;52.516;13.290;2023-06-26T13:55:34;30.40;55.40
73955;DHT22;62306;52.516;13.290;2023-06-26T13:58:03;30.50;55.30
73955;DHT22;62306;52.516;13.290;2023-06-26T14:00:32;30.50;55.40
73955;DHT22;62306;52.516;13.290;2023-06-26T14:02:59;30.40;54.50
73955;DHT22;62306;52.516;13.290;2023-06-26T14:05:26;30.40;54.30
73955;DHT22;62306;52.516;13.290;2023-06-26T14:07:54;30.30;54.70
73955;DHT22;62306;52.516;13.290;2023-06-26T14:10:21;30.40;53.50
73955;DHT22;62306;52.516;13.290;2023-06-26T14:12:48;30.20;55.50
73955;DHT22;62306;52.516;13.290;2023-06-26T14:15:15;29.80;57.00
73955;DHT22;62306;52.516;13.290;2023-06-26T14:17:43;29.40;59.00
73955;DHT22;62306;52.516;13.290;2023-06-26T14:34:04;22.70;99.90
73955;DHT22;62306;52.516;13.290;2023-06-26T14:36:31;22.20;99.90
73955;DHT22;62306;52.516;13.290;2023-06-26T14:38:58;22.10;99.90
73955;DHT22;62306;52.516;13.290;2023-06-26T14:41:25;22.10;99.90
73955;DHT22;62306;52.516;13.290;2023-06-26T14:43:52;22.00;99.90
73955;DHT22;62306;52.516;13.290;2023-06-26T14:46:19;22.00;99.90
73955;DHT22;62306;52.516;13.290;2023-06-26T14:48:46;22.00;99.90
73955;DHT22;62306;52.516;13.290;2023-06-26T14:51:14;22.00;99.90
73955;DHT22;62306;52.516;13.290;2023-06-26T14:53:41;21.90;99.90
73955;DHT22;62306;52.516;13.290;2023-06-26T14:56:08;21.90;99.90
73955;DHT22;62306;52.516;13.290;2023-06-26T14:58:35;21.70;99.90
73955;DHT22;62306;52.516;13.290;2023-06-26T15:01:02;21.40;99.90
73955;DHT22;62306;52.516;13.290;2023-06-26T15:03:29;21.00;99.90
73955;DHT22;62306;52.516;13.290;2023-06-26T15:05:56;20.70;99.90
73955;DHT22;62306;52.516;13.290;2023-06-26T15:08:24;20.70;99.90
73955;DHT22;62306;52.516;13.290;2023-06-26T15:10:51;20.70;99.90
73955;DHT22;62306;52.516;13.290;2023-06-26T15:13:18;20.60;99.90
73955;DHT22;62306;52.516;13.290;2023-06-26T15:15:45;20.50;99.90
73955;DHT22;62306;52.516;13.290;2023-06-26T15:18:12;20.40;99.90
73955;DHT22;62306;52.516;13.290;2023-06-26T15:20:39;21.30;99.90
73955;DHT22;62306;52.516;13.290;2023-06-26T15:23:06;20.50;99.90
73955;DHT22;62306;52.516;13.290;2023-06-26T15:25:34;20.60;99.90
73955;DHT22;62306;52.516;13.290;2023-06-26T15:28:02;20.80;99.90
73955;DHT22;62306;52.516;13.290;2023-06-26T15:30:29;20.90;99.90
73955;DHT22;62306;52.516;13.290;2023-06-26T15:32:56;21.00;99.90
73955;DHT22;62306;52.516;13.290;2023-06-26T15:35:23;21.30;99.90
73955;DHT22;62306;52.516;13.290;2023-06-26T15:37:50;21.40;99.90